Time,TemperatureF,DewpointF,PressureIn,WindDirection,WindDirectionDegrees,WindSpeedMPH,WindSpeedGustMPH,Humidity,HourlyPrecipIn,Conditions,Clouds,dailyrainin,SoftwareType,DateUTC
2013-03-25 00:00:00,34.0,25.0,-100.00,South,190,2.0,-999.0,71,-99.99,,,-99.99,,2013-03-25 04:00:00,
2013-03-25 00:22:00,34.0,25.0,-100.00,South,190,2.0,-999.0,71,-99.99,,,-99.99,,2013-03-25 04:22:00,
2013-03-25 00:32:00,34.0,25.0,-100.00,South,190,2.0,-999.0,71,-99.99,,,-99.99,,2013-03-25 04:32:00,
2013-03-25 00:42:00,34.0,25.0,-100.00,South,190,2.0,-999.0,71,-99.99,,,-99.99,,2013-03-25 04:42:00,
2013-03-25 00:52:00,34.0,25.0,-100.00,South,190,2.0,-999.0,71,-99.99,,,-99.99,,2013-03-25 04:52:00,
2013-03-25 01:00:00,32.0,25.0,-100.00,NNE,30,1.0,-999.0,75,-99.99,,,-99.99,,2013-03-25 05:00:00,
2013-03-25 01:21:00,32.0,25.0,-100.00,NNE,30,1.0,-999.0,75,-99.99,,,-99.99,,2013-03-25 05:21:00,
2013-03-25 01:32:00,32.0,25.0,-100.00,NNE,30,1.0,-999.0,75,-99.99,,,-99.99,,2013-03-25 05:32:00,
2013-03-25 01:41:00,32.0,25.0,-100.00,NNE,30,1.0,-999.0,75,-99.99,,,-99.99,,2013-03-25 05:41:00,
2013-03-25 01:51:00,32.0,25.0,-100.00,NNE,30,1.0,-999.0,75,-99.99,,,-99.99,,2013-03-25 05:51:00,
2013-03-25 02:00:00,33.0,26.0,-100.00,West,260,1.0,-999.0,75,-99.99,,,-99.99,,2013-03-25 06:00:00,
2013-03-25 02:21:00,33.0,26.0,-100.00,West,260,1.0,-999.0,75,-99.99,,,-99.99,,2013-03-25 06:21:00,
2013-03-25 02:32:00,33.0,26.0,-100.00,West,260,1.0,-999.0,75,-99.99,,,-99.99,,2013-03-25 06:32:00,
2013-03-25 02:41:00,33.0,26.0,-100.00,West,260,1.0,-999.0,75,-99.99,,,-99.99,,2013-03-25 06:41:00,
2013-03-25 02:51:00,33.0,26.0,-100.00,West,260,1.0,-999.0,75,-99.99,,,-99.99,,2013-03-25 06:51:00,
2013-03-25 03:00:00,33.0,25.0,-100.00,NNW,330,6.0,-999.0,71,-99.99,,,-99.99,,2013-03-25 07:00:00,
2013-03-25 03:21:00,33.0,25.0,-100.00,NNW,330,6.0,-999.0,71,-99.99,,,-99.99,,2013-03-25 07:21:00,
2013-03-25 03:31:00,33.0,25.0,-100.00,NNW,330,6.0,-999.0,71,-99.99,,,-99.99,,2013-03-25 07:31:00,
2013-03-25 03:42:00,33.0,25.0,-100.00,NNW,330,6.0,-999.0,71,-99.99,,,-99.99,,2013-03-25 07:42:00,
2013-03-25 03:52:00,33.0,25.0,-100.00,NNW,330,6.0,-999.0,71,-99.99,,,-99.99,,2013-03-25 07:52:00,
2013-03-25 04:00:00,31.0,27.0,-100.00,NNE,20,7.0,-999.0,81,-99.99,,,-99.99,,2013-03-25 08:00:00,
2013-03-25 04:22:00,31.0,27.0,-100.00,NNE,20,7.0,-999.0,81,-99.99,,,-99.99,,2013-03-25 08:22:00,
2013-03-25 04:31:00,31.0,27.0,-100.00,NNE,20,7.0,-999.0,81,-99.99,,,-99.99,,2013-03-25 08:31:00,
2013-03-25 04:42:00,31.0,27.0,-100.00,NNE,20,7.0,-999.0,81,-99.99,,,-99.99,,2013-03-25 08:42:00,
2013-03-25 04:52:00,31.0,27.0,-100.00,NNE,20,7.0,-999.0,81,-99.99,,,-99.99,,2013-03-25 08:52:00,
2013-03-25 05:00:00,31.0,26.0,-100.00,NNE,20,7.0,-999.0,82,-99.99,,,-99.99,,2013-03-25 09:00:00,
2013-03-25 05:21:00,31.0,26.0,-100.00,NNE,20,7.0,-999.0,82,-99.99,,,-99.99,,2013-03-25 09:21:00,
2013-03-25 05:32:00,31.0,26.0,-100.00,NNE,20,7.0,-999.0,82,-99.99,,,-99.99,,2013-03-25 09:32:00,
2013-03-25 05:42:00,31.0,26.0,-100.00,NNE,20,7.0,-999.0,82,-99.99,,,-99.99,,2013-03-25 09:42:00,
2013-03-25 05:52:00,31.0,26.0,-100.00,NNE,20,7.0,-999.0,82,-99.99,,,-99.99,,2013-03-25 09:52:00,
2013-03-25 06:00:00,31.0,28.0,-100.00,NNE,30,11.0,-999.0,88,-99.99,,,-99.99,,2013-03-25 10:00:00,
2013-03-25 06:22:00,31.0,28.0,-100.00,NNE,30,11.0,-999.0,88,-99.99,,,-99.99,,2013-03-25 10:22:00,
2013-03-25 06:32:00,31.0,28.0,-100.00,NNE,30,11.0,-999.0,88,-99.99,,,-99.99,,2013-03-25 10:32:00,
2013-03-25 06:42:00,31.0,28.0,-100.00,NNE,30,11.0,-999.0,88,-99.99,,,-99.99,,2013-03-25 10:42:00,
2013-03-25 06:52:00,31.0,28.0,-100.00,NNE,30,11.0,-999.0,88,-99.99,,,-99.99,,2013-03-25 10:52:00,
2013-03-25 07:00:00,30.0,28.0,-100.00,NNE,20,8.0,-999.0,90,-99.99,,,-99.99,,2013-03-25 11:00:00,
2013-03-25 07:22:00,30.0,28.0,-100.00,NNE,20,8.0,-999.0,90,-99.99,,,-99.99,,2013-03-25 11:22:00,
2013-03-25 07:31:00,30.0,28.0,-100.00,NNE,20,8.0,-999.0,90,-99.99,,,-99.99,,2013-03-25 11:31:00,
2013-03-25 07:41:00,30.0,28.0,-100.00,NNE,20,8.0,-999.0,90,-99.99,,,-99.99,,2013-03-25 11:41:00,
2013-03-25 07:51:00,30.0,28.0,-100.00,NNE,20,8.0,-999.0,90,-99.99,,,-99.99,,2013-03-25 11:51:00,
2013-03-25 08:00:00,32.0,29.0,-100.00,NNE,20,8.0,-999.0,91,-99.99,,,-99.99,,2013-03-25 12:00:00,
2013-03-25 08:31:00,32.0,29.0,-100.00,NNE,20,8.0,-999.0,91,-99.99,,,-99.99,,2013-03-25 12:31:00,
2013-03-25 08:42:00,32.0,29.0,-100.00,NNE,20,8.0,-999.0,91,-99.99,,,-99.99,,2013-03-25 12:42:00,
2013-03-25 08:52:00,32.0,29.0,-100.00,NNE,20,8.0,-999.0,91,-99.99,,,-99.99,,2013-03-25 12:52:00,
2013-03-25 09:00:00,32.0,30.0,-100.00,NNE,20,9.0,-999.0,90,-99.99,,,-99.99,,2013-03-25 13:00:00,
2013-03-25 09:21:00,32.0,30.0,-100.00,NNE,20,9.0,-999.0,90,-99.99,,,-99.99,,2013-03-25 13:21:00,
2013-03-25 09:31:00,32.0,30.0,-100.00,NNE,20,9.0,-999.0,90,-99.99,,,-99.99,,2013-03-25 13:31:00,
2013-03-25 09:41:00,32.0,30.0,-100.00,NNE,20,9.0,-999.0,90,-99.99,,,-99.99,,2013-03-25 13:41:00,
2013-03-25 09:52:00,32.0,30.0,-100.00,NNE,20,9.0,-999.0,90,-99.99,,,-99.99,,2013-03-25 13:52:00,
2013-03-25 10:00:00,34.0,31.0,-100.00,NNE,20,11.0,-999.0,88,-99.99,,,-99.99,,2013-03-25 14:00:00,
2013-03-25 10:22:00,34.0,31.0,-100.00,NNE,20,11.0,-999.0,88,-99.99,,,-99.99,,2013-03-25 14:22:00,
2013-03-25 10:32:00,34.0,31.0,-100.00,NNE,20,11.0,-999.0,88,-99.99,,,-99.99,,2013-03-25 14:32:00,
2013-03-25 10:41:00,34.0,31.0,-100.00,NNE,20,11.0,-999.0,88,-99.99,,,-99.99,,2013-03-25 14:41:00,
2013-03-25 10:52:00,34.0,31.0,-100.00,NNE,20,11.0,-999.0,88,-99.99,,,-99.99,,2013-03-25 14:52:00,
2013-03-25 11:00:00,35.0,31.0,-100.00,NNE,20,11.0,-999.0,82,-99.99,,,-99.99,,2013-03-25 15:00:00,
2013-03-25 11:21:00,35.0,31.0,-100.00,NNE,20,11.0,-999.0,82,-99.99,,,-99.99,,2013-03-25 15:21:00,
2013-03-25 11:32:00,35.0,31.0,-100.00,NNE,20,11.0,-999.0,82,-99.99,,,-99.99,,2013-03-25 15:32:00,
2013-03-25 11:42:00,35.0,31.0,-100.00,NNE,20,11.0,-999.0,82,-99.99,,,-99.99,,2013-03-25 15:42:00,
2013-03-25 11:52:00,35.0,31.0,-100.00,NNE,20,11.0,-999.0,82,-99.99,,,-99.99,,2013-03-25 15:52:00,
2013-03-25 12:00:00,38.0,29.0,-100.00,NNE,20,11.0,-999.0,71,-99.99,,,-99.99,,2013-03-25 16:00:00,
2013-03-25 12:22:00,38.0,29.0,-100.00,NNE,20,11.0,-999.0,71,-99.99,,,-99.99,,2013-03-25 16:22:00,
2013-03-25 12:32:00,38.0,29.0,-100.00,NNE,20,11.0,-999.0,71,-99.99,,,-99.99,,2013-03-25 16:32:00,
2013-03-25 12:42:00,38.0,29.0,-100.00,NNE,20,11.0,-999.0,71,-99.99,,,-99.99,,2013-03-25 16:42:00,
2013-03-25 12:52:00,38.0,29.0,-100.00,NNE,20,11.0,-999.0,71,-99.99,,,-99.99,,2013-03-25 16:52:00,
2013-03-25 13:00:00,38.0,30.0,-100.00,NNE,20,14.0,-999.0,71,-99.99,,,-99.99,,2013-03-25 17:00:00,
2013-03-25 13:22:00,38.0,30.0,-100.00,NNE,20,14.0,-999.0,71,-99.99,,,-99.99,,2013-03-25 17:22:00,
2013-03-25 13:31:00,38.0,30.0,-100.00,NNE,20,14.0,-999.0,71,-99.99,,,-99.99,,2013-03-25 17:31:00,
2013-03-25 13:42:00,38.0,30.0,-100.00,NNE,20,14.0,-999.0,71,-99.99,,,-99.99,,2013-03-25 17:42:00,
2013-03-25 13:51:00,38.0,30.0,-100.00,NNE,20,14.0,-999.0,71,-99.99,,,-99.99,,2013-03-25 17:51:00,
2013-03-25 14:00:00,39.0,29.0,-100.00,NNE,20,14.0,-999.0,67,-99.99,,,-99.99,,2013-03-25 18:00:00,
2013-03-25 14:22:00,39.0,29.0,-100.00,NNE,20,14.0,-999.0,67,-99.99,,,-99.99,,2013-03-25 18:22:00,
2013-03-25 14:31:00,39.0,29.0,-100.00,NNE,20,14.0,-999.0,67,-99.99,,,-99.99,,2013-03-25 18:31:00,
2013-03-25 14:41:00,39.0,29.0,-100.00,NNE,20,14.0,-999.0,67,-99.99,,,-99.99,,2013-03-25 18:41:00,
2013-03-25 14:51:00,39.0,29.0,-100.00,NNE,20,14.0,-999.0,67,-99.99,,,-99.99,,2013-03-25 18:51:00,
2013-03-25 15:00:00,41.0,27.0,-100.00,NNE,20,17.0,-999.0,59,-99.99,,,-99.99,,2013-03-25 19:00:00,
2013-03-25 15:21:00,41.0,27.0,-100.00,NNE,20,17.0,-999.0,59,-99.99,,,-99.99,,2013-03-25 19:21:00,
2013-03-25 15:31:00,41.0,27.0,-100.00,NNE,20,17.0,-999.0,59,-99.99,,,-99.99,,2013-03-25 19:31:00,
2013-03-25 15:41:00,41.0,27.0,-100.00,NNE,20,17.0,-999.0,59,-99.99,,,-99.99,,2013-03-25 19:41:00,
2013-03-25 15:52:00,41.0,27.0,-100.00,NNE,20,17.0,-999.0,59,-99.99,,,-99.99,,2013-03-25 19:52:00,
2013-03-25 16:00:00,41.0,26.0,-100.00,NNE,20,18.0,-999.0,54,-99.99,,,-99.99,,2013-03-25 20:00:00,
2013-03-25 16:21:00,41.0,26.0,-100.00,NNE,20,18.0,-999.0,54,-99.99,,,-99.99,,2013-03-25 20:21:00,
2013-03-25 16:31:00,41.0,26.0,-100.00,NNE,20,18.0,-999.0,54,-99.99,,,-99.99,,2013-03-25 20:31:00,
2013-03-25 16:41:00,41.0,26.0,-100.00,NNE,20,18.0,-999.0,54,-99.99,,,-99.99,,2013-03-25 20:41:00,
2013-03-25 16:51:00,41.0,26.0,-100.00,NNE,20,18.0,-999.0,54,-99.99,,,-99.99,,2013-03-25 20:51:00,
2013-03-25 17:00:00,42.0,25.0,-100.00,NNE,20,17.0,-999.0,50,-99.99,,,-99.99,,2013-03-25 21:00:00,
2013-03-25 17:21:00,42.0,25.0,-100.00,NNE,20,17.0,-999.0,50,-99.99,,,-99.99,,2013-03-25 21:21:00,
2013-03-25 17:32:00,42.0,25.0,-100.00,NNE,20,17.0,-999.0,50,-99.99,,,-99.99,,2013-03-25 21:32:00,
2013-03-25 17:42:00,42.0,25.0,-100.00,NNE,20,17.0,-999.0,50,-99.99,,,-99.99,,2013-03-25 21:42:00,
2013-03-25 17:52:00,42.0,25.0,-100.00,NNE,20,17.0,-999.0,50,-99.99,,,-99.99,,2013-03-25 21:52:00,
2013-03-25 18:00:00,42.0,25.0,-100.00,NNE,30,14.0,-999.0,50,-99.99,,,-99.99,,2013-03-25 22:00:00,
2013-03-25 18:22:00,42.0,25.0,-100.00,NNE,30,14.0,-999.0,50,-99.99,,,-99.99,,2013-03-25 22:22:00,
2013-03-25 18:32:00,42.0,25.0,-100.00,NNE,30,14.0,-999.0,50,-99.99,,,-99.99,,2013-03-25 22:32:00,
2013-03-25 18:42:00,42.0,25.0,-100.00,NNE,30,14.0,-999.0,50,-99.99,,,-99.99,,2013-03-25 22:42:00,
2013-03-25 18:52:00,42.0,25.0,-100.00,NNE,30,14.0,-999.0,50,-99.99,,,-99.99,,2013-03-25 22:52:00,
2013-03-25 19:00:00,42.0,25.0,-100.00,NNE,30,13.0,-999.0,51,-99.99,,,-99.99,,2013-03-25 23:00:00,
2013-03-25 19:21:00,42.0,25.0,-100.00,NNE,30,13.0,-999.0,51,-99.99,,,-99.99,,2013-03-25 23:21:00,
2013-03-25 19:31:00,42.0,25.0,-100.00,NNE,30,13.0,-999.0,51,-99.99,,,-99.99,,2013-03-25 23:31:00,
2013-03-25 19:42:00,42.0,25.0,-100.00,NNE,30,13.0,-999.0,51,-99.99,,,-99.99,,2013-03-25 23:42:00,
2013-03-25 19:52:00,42.0,25.0,-100.00,NNE,30,13.0,-999.0,51,-99.99,,,-99.99,,2013-03-25 23:52:00,
2013-03-25 20:00:00,39.0,27.0,-100.00,NNE,20,18.0,-999.0,60,-99.99,,,-99.99,,2013-03-26 00:00:00,
2013-03-25 20:21:00,39.0,27.0,-100.00,NNE,20,18.0,-999.0,60,-99.99,,,-99.99,,2013-03-26 00:21:00,
2013-03-25 20:31:00,39.0,27.0,-100.00,NNE,20,18.0,-999.0,60,-99.99,,,-99.99,,2013-03-26 00:31:00,
2013-03-25 20:41:00,39.0,27.0,-100.00,NNE,20,18.0,-999.0,60,-99.99,,,-99.99,,2013-03-26 00:41:00,
2013-03-25 20:51:00,39.0,27.0,-100.00,NNE,20,18.0,-999.0,60,-99.99,,,-99.99,,2013-03-26 00:51:00,
2013-03-25 21:00:00,36.0,25.0,-100.00,NNE,20,21.0,-999.0,63,-99.99,,,-99.99,,2013-03-26 01:00:00,
2013-03-25 21:21:00,36.0,25.0,-100.00,NNE,20,21.0,-999.0,63,-99.99,,,-99.99,,2013-03-26 01:21:00,
2013-03-25 21:41:00,36.0,25.0,-100.00,NNE,20,21.0,-999.0,63,-99.99,,,-99.99,,2013-03-26 01:41:00,
2013-03-25 21:52:00,36.0,25.0,-100.00,NNE,20,21.0,-999.0,63,-99.99,,,-99.99,,2013-03-26 01:52:00,
2013-03-25 22:00:00,35.0,25.0,-100.00,NNE,20,21.0,-999.0,67,-99.99,,,-99.99,,2013-03-26 02:00:00,
2013-03-25 22:21:00,35.0,25.0,-100.00,NNE,20,21.0,-999.0,67,-99.99,,,-99.99,,2013-03-26 02:21:00,
2013-03-25 22:31:00,35.0,25.0,-100.00,NNE,20,21.0,-999.0,67,-99.99,,,-99.99,,2013-03-26 02:31:00,
2013-03-25 22:41:00,35.0,25.0,-100.00,NNE,20,21.0,-999.0,67,-99.99,,,-99.99,,2013-03-26 02:41:00,
2013-03-25 22:52:00,35.0,25.0,-100.00,NNE,20,21.0,-999.0,67,-99.99,,,-99.99,,2013-03-26 02:52:00,
2013-03-25 23:00:00,34.0,24.0,-100.00,NNE,20,15.0,-999.0,66,-99.99,,,-99.99,,2013-03-26 03:00:00,
2013-03-25 23:21:00,34.0,24.0,-100.00,NNE,20,15.0,-999.0,66,-99.99,,,-99.99,,2013-03-26 03:21:00,
2013-03-25 23:33:00,34.0,24.0,-100.00,NNE,20,15.0,-999.0,66,-99.99,,,-99.99,,2013-03-26 03:33:00,
2013-03-25 23:42:00,34.0,24.0,-100.00,NNE,20,15.0,-999.0,66,-99.99,,,-99.99,,2013-03-26 03:42:00,
2013-03-25 23:52:00,34.0,24.0,-100.00,NNE,20,15.0,-999.0,66,-99.99,,,-99.99,,2013-03-26 03:52:00,